createdAt,value
2023-06-03T00:00:30.035Z,39.57
2023-06-03T00:03:19.000Z,39.65
2023-06-03T00:05:46.503Z,39.58
2023-06-03T00:08:14.048Z,39.55
2023-06-03T00:10:41.512Z,39.60
2023-06-03T00:13:09.388Z,39.70
2023-06-03T00:15:36.777Z,39.76
2023-06-03T00:18:05.393Z,39.54
2023-06-03T00:20:37.316Z,39.52
2023-06-03T00:23:05.057Z,39.59
2023-06-03T00:25:33.386Z,39.52
2023-06-03T00:28:01.115Z,39.57
2023-06-03T00:30:30.028Z,39.49
2023-06-03T00:32:57.794Z,39.60
2023-06-03T00:35:25.414Z,39.66
2023-06-03T00:37:55.629Z,39.39
2023-06-03T00:40:23.023Z,39.49
2023-06-03T00:42:50.681Z,39.24
2023-06-03T00:45:18.360Z,39.26
2023-06-03T00:47:46.139Z,39.29
2023-06-03T00:50:14.746Z,39.44
2023-06-03T00:52:43.031Z,39.42
2023-06-03T00:55:10.756Z,39.26
2023-06-03T00:57:38.485Z,39.21
2023-06-03T01:00:06.549Z,39.23
2023-06-03T01:02:37.594Z,39.10
2023-06-03T01:05:06.175Z,39.23
2023-06-03T01:07:43.519Z,39.07
2023-06-03T01:10:24.772Z,39.02
2023-06-03T01:13:01.093Z,39.03
2023-06-03T01:15:31.892Z,39.05
2023-06-03T01:18:04.381Z,39.04
2023-06-03T01:20:32.954Z,38.87
2023-06-03T01:23:29.549Z,38.75
2023-06-03T01:25:58.643Z,38.72
2023-06-03T01:28:28.896Z,38.72
2023-06-03T01:30:57.696Z,38.64
2023-06-03T01:33:28.102Z,38.54
2023-06-03T01:35:57.454Z,38.67
2023-06-03T01:38:25.808Z,38.62
2023-06-03T01:40:54.001Z,38.43
2023-06-03T01:43:21.560Z,38.42
2023-06-03T01:45:49.208Z,38.30
2023-06-03T01:48:18.287Z,38.28
2023-06-03T01:50:45.986Z,38.28
2023-06-03T01:53:14.427Z,38.16
2023-06-03T01:55:42.125Z,38.16
2023-06-03T01:58:09.972Z,38.20
2023-06-03T02:00:37.406Z,38.09
2023-06-03T02:03:05.135Z,38.06
2023-06-03T02:05:32.475Z,38.07
2023-06-03T02:08:00.099Z,37.88
2023-06-03T02:10:27.378Z,37.91
2023-06-03T02:12:54.973Z,37.71
2023-06-03T02:15:22.382Z,37.72
2023-06-03T02:17:50.490Z,37.94
2023-06-03T02:20:18.773Z,37.72
2023-06-03T02:22:46.530Z,37.79
2023-06-03T02:25:14.472Z,37.68
2023-06-03T02:27:44.842Z,37.82
2023-06-03T02:30:12.260Z,37.80
2023-06-03T02:32:40.151Z,37.85
2023-06-03T02:35:07.738Z,37.50
2023-06-03T02:37:35.398Z,37.53
2023-06-03T02:40:02.785Z,37.50
2023-06-03T02:42:30.315Z,37.53
2023-06-03T02:44:57.622Z,37.56
2023-06-03T02:47:25.315Z,37.30
2023-06-03T02:49:52.627Z,37.43
2023-06-03T02:52:21.190Z,37.46
2023-06-03T02:54:48.474Z,37.40
2023-06-03T02:57:16.212Z,37.32
2023-06-03T02:59:43.540Z,37.44
2023-06-03T03:02:13.391Z,37.10
2023-06-03T03:04:41.120Z,37.26
2023-06-03T03:07:09.737Z,37.16
2023-06-03T03:09:37.946Z,37.16
2023-06-03T03:12:05.813Z,37.21
2023-06-03T03:14:33.134Z,37.23
2023-06-03T03:17:00.861Z,37.13
2023-06-03T03:19:28.249Z,37.28
2023-06-03T03:21:55.796Z,37.08
2023-06-03T03:24:25.478Z,37.04
2023-06-03T03:26:53.107Z,37.08
2023-06-03T03:29:24.443Z,36.79
2023-06-03T03:31:57.691Z,36.99
2023-06-03T03:34:25.586Z,36.97
2023-06-03T03:36:53.128Z,37.02
2023-06-03T03:39:20.462Z,36.79
2023-06-03T03:41:48.154Z,36.88
2023-06-03T03:44:15.398Z,36.99
2023-06-03T03:46:58.091Z,36.88
2023-06-03T03:49:35.381Z,36.89
2023-06-03T03:52:06.094Z,36.74
2023-06-03T03:54:36.337Z,36.81
2023-06-03T03:57:10.697Z,36.91
2023-06-03T03:59:38.264Z,36.84
2023-06-03T04:02:06.221Z,36.79
2023-06-03T04:04:46.912Z,36.70
2023-06-03T04:07:19.073Z,36.68
2023-06-03T04:09:48.265Z,36.66
2023-06-03T04:12:31.356Z,36.74
2023-06-03T04:14:59.202Z,36.72
2023-06-03T04:17:29.008Z,36.24
2023-06-03T04:19:56.892Z,36.60
2023-06-03T04:22:26.000Z,36.60
2023-06-03T04:25:01.511Z,36.65
2023-06-03T04:27:29.249Z,36.59
2023-06-03T04:29:56.953Z,36.61
2023-06-03T04:32:24.535Z,36.70
2023-06-03T04:34:55.965Z,36.40
2023-06-03T04:37:23.899Z,36.57
2023-06-03T04:39:52.298Z,36.49
2023-06-03T04:42:21.402Z,36.57
2023-06-03T04:44:49.453Z,36.65
2023-06-03T04:47:18.762Z,36.67
2023-06-03T04:49:48.440Z,36.51
2023-06-03T04:52:16.275Z,36.74
2023-06-03T04:54:43.970Z,36.65
2023-06-03T04:57:11.601Z,36.66
2023-06-03T04:59:38.929Z,36.94
2023-06-03T05:02:09.725Z,36.81
2023-06-03T05:04:38.590Z,36.72
2023-06-03T05:07:06.926Z,36.80
2023-06-03T05:09:34.282Z,36.67
2023-06-03T05:12:01.898Z,36.52
2023-06-03T05:14:29.234Z,36.65
2023-06-03T05:16:56.863Z,36.67
2023-06-03T05:19:25.064Z,36.70
2023-06-03T05:21:52.619Z,36.58
2023-06-03T05:24:20.039Z,36.36
2023-06-03T05:26:47.680Z,36.38
2023-06-03T05:29:15.171Z,36.00
2023-06-03T05:31:42.834Z,36.19
2023-06-03T05:34:11.471Z,35.90
2023-06-03T05:36:39.176Z,35.97
2023-06-03T05:39:06.628Z,35.93
2023-06-03T05:41:34.793Z,35.89
2023-06-03T05:44:02.073Z,35.96
2023-06-03T05:46:29.624Z,36.12
2023-06-03T05:48:57.043Z,36.08
2023-06-03T05:51:24.645Z,36.40
2023-06-03T05:53:51.930Z,36.47
2023-06-03T05:56:19.598Z,36.40
2023-06-03T05:58:47.003Z,36.52
2023-06-03T06:01:14.613Z,36.82
2023-06-03T06:03:43.037Z,38.53
2023-06-03T06:06:11.027Z,37.97
2023-06-03T06:08:38.312Z,36.98
2023-06-03T06:11:06.198Z,36.90
2023-06-03T06:13:33.703Z,37.32
2023-06-03T06:16:03.762Z,37.03
2023-06-03T06:18:31.600Z,37.51
2023-06-03T06:20:59.756Z,37.72
2023-06-03T06:23:27.286Z,37.92
2023-06-03T06:25:56.327Z,38.13
2023-06-03T06:28:27.892Z,38.12
2023-06-03T06:30:57.165Z,38.51
2023-06-03T06:33:24.728Z,38.40
2023-06-03T06:35:52.280Z,38.39
2023-06-03T06:38:19.815Z,39.28
2023-06-03T06:40:51.011Z,38.57
2023-06-03T06:43:22.234Z,39.10
2023-06-03T06:45:51.206Z,39.35
2023-06-03T06:48:18.904Z,39.20
2023-06-03T06:50:46.892Z,39.10
2023-06-03T06:53:22.052Z,39.22
2023-06-03T06:55:54.216Z,39.58
2023-06-03T06:58:22.505Z,40.00
2023-06-03T07:00:50.578Z,40.10
2023-06-03T07:03:21.339Z,41.64
2023-06-03T07:05:53.500Z,45.85
2023-06-03T07:08:25.969Z,45.97
2023-06-03T07:11:01.567Z,44.21
2023-06-03T07:13:28.987Z,42.28
2023-06-03T07:15:57.140Z,39.85
2023-06-03T07:18:26.682Z,41.33
2023-06-03T07:20:54.399Z,41.84
2023-06-03T07:23:25.577Z,41.50
2023-06-03T07:25:54.770Z,43.78
2023-06-03T07:28:34.589Z,43.14
2023-06-03T07:31:08.460Z,42.46
2023-06-03T07:33:54.982Z,44.54
2023-06-03T07:36:25.414Z,42.57
2023-06-03T07:39:09.975Z,41.51
2023-06-03T07:41:42.414Z,42.90
2023-06-03T07:44:15.012Z,40.93
2023-06-03T07:46:45.730Z,41.19
2023-06-03T07:49:15.878Z,41.58
2023-06-03T07:51:48.887Z,40.80
2023-06-03T07:54:16.741Z,41.00
2023-06-03T07:56:46.045Z,40.34
2023-06-03T07:59:15.391Z,41.01
2023-06-03T08:01:48.605Z,40.50
2023-06-03T08:04:36.553Z,41.31
2023-06-03T08:07:07.023Z,41.24
2023-06-03T08:09:36.160Z,40.33
2023-06-03T08:12:08.535Z,38.84
2023-06-03T08:14:38.569Z,40.03
2023-06-03T08:17:11.754Z,37.49
2023-06-03T08:19:39.686Z,37.49
2023-06-03T08:22:28.466Z,38.21
2023-06-03T08:24:55.762Z,37.24
2023-06-03T08:27:23.504Z,40.20
2023-06-03T08:29:50.838Z,38.22
2023-06-03T08:32:18.342Z,36.63
2023-06-03T08:34:46.195Z,36.68
2023-06-03T08:37:13.748Z,37.82
2023-06-03T08:39:41.073Z,37.09
2023-06-03T08:42:14.096Z,38.00
2023-06-03T08:45:04.340Z,35.91
2023-06-03T08:47:50.298Z,35.35
2023-06-03T08:50:21.179Z,35.86
2023-06-03T08:52:49.312Z,37.77
2023-06-03T08:55:17.986Z,35.66
2023-06-03T08:58:05.826Z,36.13
2023-06-03T09:00:33.554Z,36.20
2023-06-03T09:03:02.669Z,36.71
2023-06-03T09:05:31.018Z,36.16
2023-06-03T09:07:58.607Z,36.52
2023-06-03T09:10:27.360Z,36.22
2023-06-03T09:12:58.749Z,35.88
2023-06-03T09:15:26.320Z,35.98
2023-06-03T09:17:53.851Z,35.94
2023-06-03T09:20:21.318Z,35.82
2023-06-03T09:22:49.888Z,35.89
2023-06-03T09:25:18.036Z,35.95
2023-06-03T09:27:45.714Z,35.57
2023-06-03T09:30:13.121Z,35.73
2023-06-03T09:32:42.016Z,36.23
2023-06-03T09:35:10.441Z,35.44
2023-06-03T09:37:38.136Z,35.17
2023-06-03T09:40:24.436Z,35.12
2023-06-03T09:42:51.952Z,37.55
2023-06-03T09:45:26.101Z,38.72
2023-06-03T09:47:54.632Z,34.95
2023-06-03T09:50:23.264Z,34.35
2023-06-03T09:52:51.445Z,34.97
2023-06-03T09:55:19.460Z,36.97
2023-06-03T09:58:07.128Z,34.84
2023-06-03T10:00:49.792Z,34.43
2023-06-03T10:03:19.918Z,34.76
2023-06-03T10:05:47.621Z,34.35
2023-06-03T10:08:15.212Z,33.30
2023-06-03T10:10:56.743Z,33.51
2023-06-03T10:13:25.077Z,33.25
2023-06-03T10:15:54.246Z,33.57
2023-06-03T10:18:41.265Z,33.30
2023-06-03T10:21:14.694Z,32.95
2023-06-03T10:23:43.510Z,33.59
2023-06-03T10:26:11.387Z,33.21
2023-06-03T10:28:39.944Z,32.95
2023-06-03T10:31:12.490Z,33.28
2023-06-03T10:33:41.720Z,33.30
2023-06-03T10:36:10.720Z,33.20
2023-06-03T10:38:41.015Z,32.75
2023-06-03T10:41:13.351Z,32.40
2023-06-03T10:43:44.205Z,32.56
2023-06-03T10:46:12.702Z,32.38
2023-06-03T10:48:44.787Z,32.73
2023-06-03T10:51:48.889Z,31.85
2023-06-03T10:54:34.923Z,31.53
2023-06-03T10:57:07.711Z,31.60
2023-06-03T10:59:46.407Z,31.90
2023-06-03T11:02:14.411Z,33.05
2023-06-03T11:04:42.065Z,32.13
2023-06-03T11:07:31.132Z,32.07
2023-06-03T11:09:58.931Z,32.70
2023-06-03T11:12:48.520Z,31.89
2023-06-03T11:15:16.718Z,32.04
2023-06-03T11:18:16.851Z,31.99
2023-06-03T11:20:44.515Z,31.62
2023-06-03T11:23:44.696Z,31.57
2023-06-03T11:26:35.924Z,32.48
2023-06-03T11:29:07.487Z,32.61
2023-06-03T11:31:36.104Z,32.31
2023-06-03T11:34:24.095Z,31.90
2023-06-03T11:36:53.445Z,31.42
2023-06-03T11:39:22.520Z,30.95
2023-06-03T11:42:07.388Z,31.63
2023-06-03T11:44:36.363Z,31.21
2023-06-03T11:47:05.730Z,30.92
2023-06-03T11:49:38.490Z,31.09
2023-06-03T11:52:08.795Z,30.27
2023-06-03T11:54:37.758Z,30.27
2023-06-03T11:57:06.430Z,30.84
2023-06-03T11:59:42.238Z,30.01
2023-06-03T12:02:11.135Z,31.58
2023-06-03T12:04:39.233Z,29.91
2023-06-03T12:07:11.670Z,29.94
2023-06-03T12:09:39.348Z,30.52
2023-06-03T12:12:08.692Z,29.84
2023-06-03T12:14:39.347Z,30.53
2023-06-03T12:17:13.844Z,30.89
2023-06-03T12:19:46.924Z,31.30
2023-06-03T12:22:22.236Z,31.30
2023-06-03T12:24:50.027Z,30.89
2023-06-03T12:27:25.284Z,31.04
2023-06-03T12:29:58.336Z,31.05
2023-06-03T12:32:30.380Z,30.37
2023-06-03T12:35:10.700Z,29.93
2023-06-03T12:37:39.704Z,29.83
2023-06-03T12:40:08.301Z,30.05
2023-06-03T12:42:43.472Z,30.26
2023-06-03T12:45:11.147Z,30.63
2023-06-03T12:47:48.926Z,30.81
2023-06-03T12:50:17.756Z,30.16
2023-06-03T12:52:45.672Z,30.61
2023-06-03T12:55:18.218Z,30.33
2023-06-03T12:57:47.547Z,30.01
2023-06-03T13:00:22.813Z,29.38
2023-06-03T13:02:54.972Z,29.33
2023-06-03T13:05:24.190Z,29.77
2023-06-03T13:07:51.710Z,30.50
2023-06-03T13:10:19.688Z,29.02
2023-06-03T13:12:48.489Z,29.52
2023-06-03T13:15:17.810Z,29.64
2023-06-03T13:17:45.264Z,29.86
2023-06-03T13:20:13.261Z,30.59
2023-06-03T13:22:42.240Z,29.41
2023-06-03T13:25:10.391Z,29.72
2023-06-03T13:27:42.169Z,30.19
2023-06-03T13:30:10.399Z,29.76
2023-06-03T13:32:40.013Z,29.67
2023-06-03T13:35:08.712Z,30.44
2023-06-03T13:37:36.032Z,29.94
2023-06-03T13:40:03.915Z,30.23
2023-06-03T13:42:31.440Z,30.30
2023-06-03T13:44:59.162Z,30.15
2023-06-03T13:47:27.223Z,30.48
2023-06-03T13:49:56.128Z,29.94
2023-06-03T13:52:24.265Z,30.53
2023-06-03T13:54:51.882Z,29.80
2023-06-03T13:57:19.249Z,29.47
2023-06-03T13:59:47.164Z,29.67
2023-06-03T14:02:15.096Z,30.20
2023-06-03T14:04:44.004Z,29.69
2023-06-03T14:07:11.639Z,29.93
2023-06-03T14:09:39.579Z,29.96
2023-06-03T14:12:07.566Z,29.55
2023-06-03T14:14:35.148Z,29.74
2023-06-03T14:17:02.444Z,29.61
2023-06-03T14:19:31.091Z,29.88
2023-06-03T14:21:58.508Z,29.79
2023-06-03T14:24:26.060Z,30.07
2023-06-03T14:26:53.408Z,29.08
2023-06-03T14:29:21.083Z,29.80
2023-06-03T14:31:48.638Z,29.82
2023-06-03T14:34:16.205Z,29.75
2023-06-03T14:36:43.538Z,29.82
2023-06-03T14:39:11.794Z,29.73
2023-06-03T14:41:39.344Z,29.72
2023-06-03T14:44:06.911Z,29.48
2023-06-03T14:46:34.248Z,29.90
2023-06-03T14:49:01.900Z,29.20
2023-06-03T14:51:29.253Z,29.68
2023-06-03T14:53:57.175Z,29.54
2023-06-03T14:56:24.505Z,29.71
2023-06-03T14:58:52.075Z,29.68
2023-06-03T15:01:19.437Z,30.03
2023-06-03T15:03:47.213Z,29.31
2023-06-03T15:06:16.100Z,29.72
2023-06-03T15:08:44.233Z,29.22
2023-06-03T15:11:11.674Z,29.22
2023-06-03T15:13:40.991Z,29.63
2023-06-03T15:16:08.603Z,29.71
2023-06-03T15:18:36.613Z,29.25
2023-06-03T15:21:04.737Z,29.36
2023-06-03T15:23:32.361Z,29.94
2023-06-03T15:26:00.148Z,29.94
2023-06-03T15:28:27.879Z,29.94
2023-06-03T15:30:55.303Z,30.20
2023-06-03T15:33:22.897Z,30.21
2023-06-03T15:35:50.177Z,29.64
2023-06-03T15:38:17.775Z,29.54
2023-06-03T15:40:45.096Z,29.63
2023-06-03T15:43:12.654Z,29.60
2023-06-03T15:45:39.966Z,29.58
2023-06-03T15:48:07.858Z,29.66
2023-06-03T15:50:36.289Z,29.73
2023-06-03T15:53:04.697Z,29.64
2023-06-03T15:55:32.321Z,30.15
2023-06-03T15:57:59.957Z,30.25
2023-06-03T16:00:27.643Z,30.35
2023-06-03T16:02:55.475Z,29.92
2023-06-03T16:05:23.883Z,30.33
2023-06-03T16:07:52.160Z,29.91
2023-06-03T16:10:19.619Z,30.12
2023-06-03T16:12:47.284Z,30.38
2023-06-03T16:15:14.746Z,30.77
2023-06-03T16:17:42.484Z,30.41
2023-06-03T16:20:10.391Z,30.13
2023-06-03T16:22:38.051Z,30.66
2023-06-03T16:25:05.676Z,30.07
2023-06-03T16:27:33.376Z,30.05
2023-06-03T16:30:01.372Z,30.24
2023-06-03T16:32:29.907Z,29.98
2023-06-03T16:34:57.305Z,30.58
2023-06-03T16:37:25.005Z,30.29
2023-06-03T16:39:58.003Z,30.35
2023-06-03T16:42:25.778Z,30.57
2023-06-03T16:44:53.043Z,30.45
2023-06-03T16:47:20.711Z,30.66
2023-06-03T16:49:48.056Z,30.45
2023-06-03T16:52:16.052Z,30.39
2023-06-03T16:54:43.698Z,30.41
2023-06-03T16:57:11.340Z,30.70
2023-06-03T16:59:38.664Z,30.41
2023-06-03T17:02:06.262Z,30.64
2023-06-03T17:04:33.581Z,30.61
2023-06-03T17:07:01.183Z,30.46
2023-06-03T17:09:28.495Z,30.69
2023-06-03T17:11:56.056Z,30.83
2023-06-03T17:14:23.547Z,30.43
2023-06-03T17:16:51.152Z,30.43
2023-06-03T17:19:18.477Z,30.71
2023-06-03T17:21:46.178Z,30.50
2023-06-03T17:24:13.498Z,30.46
2023-06-03T17:26:41.197Z,30.61
2023-06-03T17:29:08.596Z,30.61
2023-06-03T17:31:36.218Z,30.75
2023-06-03T17:34:03.748Z,30.91
2023-06-03T17:36:31.447Z,30.88
2023-06-03T17:38:58.726Z,31.14
2023-06-03T17:41:27.384Z,30.79
2023-06-03T17:43:54.768Z,30.95
2023-06-03T17:46:22.387Z,31.10
2023-06-03T17:48:49.645Z,31.24
2023-06-03T17:51:17.372Z,30.78
2023-06-03T17:53:44.705Z,30.81
2023-06-03T17:56:12.357Z,30.59
2023-06-03T17:58:39.787Z,30.77
2023-06-03T18:01:08.834Z,30.87
2023-06-03T18:03:36.378Z,30.60
2023-06-03T18:06:04.335Z,30.51
2023-06-03T18:08:31.905Z,30.55
2023-06-03T18:10:59.562Z,30.45
2023-06-03T18:13:26.890Z,30.23
2023-06-03T18:15:54.479Z,30.81
2023-06-03T18:18:21.852Z,31.00
2023-06-03T18:20:49.786Z,30.71
2023-06-03T18:23:17.803Z,30.63
2023-06-03T18:25:46.634Z,30.72
2023-06-03T18:28:13.914Z,31.01
2023-06-03T18:30:41.661Z,30.70
2023-06-03T18:33:09.483Z,30.75
2023-06-03T18:35:37.490Z,30.95
2023-06-03T18:38:04.780Z,31.11
2023-06-03T18:40:32.522Z,30.99
2023-06-03T18:42:59.931Z,31.05
2023-06-03T18:45:27.561Z,31.16
2023-06-03T18:47:55.034Z,31.29
2023-06-03T18:50:23.292Z,31.37
2023-06-03T18:52:51.641Z,31.26
2023-06-03T18:55:19.509Z,31.24
2023-06-03T18:57:48.667Z,31.41
2023-06-03T19:00:16.367Z,31.58
2023-06-03T19:02:43.761Z,31.57
2023-06-03T19:05:11.922Z,31.71
2023-06-03T19:07:39.483Z,31.72
2023-06-03T19:10:07.819Z,31.62
2023-06-03T19:12:35.294Z,31.81
2023-06-03T19:15:03.333Z,31.66
2023-06-03T19:17:30.992Z,31.76
2023-06-03T19:19:58.532Z,31.92
2023-06-03T19:22:25.861Z,31.79
2023-06-03T19:24:53.840Z,31.57
2023-06-03T19:27:21.278Z,31.82
2023-06-03T19:29:48.978Z,31.66
2023-06-03T19:32:16.438Z,31.79
2023-06-03T19:34:44.057Z,31.87
2023-06-03T19:37:11.599Z,31.73
2023-06-03T19:39:39.877Z,32.08
2023-06-03T19:42:07.963Z,31.80
2023-06-03T19:44:36.432Z,31.80
2023-06-03T19:47:04.052Z,31.87
2023-06-03T19:49:32.057Z,31.92
2023-06-03T19:51:59.632Z,32.03
2023-06-03T19:54:28.176Z,32.27
2023-06-03T19:56:56.639Z,32.40
2023-06-03T19:59:25.409Z,32.82
2023-06-03T20:01:54.854Z,32.85
2023-06-03T20:04:22.629Z,33.10
2023-06-03T20:06:50.713Z,33.11
2023-06-03T20:09:19.294Z,33.56
2023-06-03T20:11:47.444Z,33.53
2023-06-03T20:14:15.787Z,33.94
2023-06-03T20:16:43.202Z,34.10
2023-06-03T20:19:11.166Z,34.14
2023-06-03T20:21:39.120Z,34.35
2023-06-03T20:24:08.225Z,34.05
2023-06-03T20:26:36.512Z,34.25
2023-06-03T20:29:05.489Z,34.12
2023-06-03T20:31:33.273Z,33.94
2023-06-03T20:34:01.190Z,34.17
2023-06-03T20:36:29.428Z,34.23
2023-06-03T20:38:57.358Z,34.21
2023-06-03T20:41:24.767Z,34.13
2023-06-03T20:43:52.407Z,34.13
2023-06-03T20:46:19.917Z,34.29
2023-06-03T20:48:47.616Z,34.46
2023-06-03T20:51:14.945Z,34.20
2023-06-03T20:53:42.844Z,34.47
2023-06-03T20:56:10.991Z,34.29
2023-06-03T20:58:38.957Z,34.40
2023-06-03T21:01:06.541Z,34.38
2023-06-03T21:03:36.559Z,34.41
2023-06-03T21:06:04.086Z,34.40
2023-06-03T21:08:31.625Z,34.35
2023-06-03T21:10:59.049Z,34.28
2023-06-03T21:13:27.362Z,34.30
2023-06-03T21:15:54.688Z,34.32
2023-06-03T21:18:22.315Z,34.33
2023-06-03T21:20:49.655Z,34.43
2023-06-03T21:23:17.896Z,34.24
2023-06-03T21:25:45.287Z,34.18
2023-06-03T21:28:12.988Z,34.16
2023-06-03T21:30:40.549Z,34.08
2023-06-03T21:33:08.085Z,34.08
2023-06-03T21:35:35.900Z,34.18
2023-06-03T21:38:03.540Z,34.27
2023-06-03T21:40:30.949Z,34.24
2023-06-03T21:42:58.655Z,34.29
2023-06-03T21:45:26.069Z,34.28
2023-06-03T21:47:53.731Z,34.10
2023-06-03T21:50:21.059Z,34.20
2023-06-03T21:52:48.912Z,34.34
2023-06-03T21:55:16.895Z,34.17
2023-06-03T21:57:44.505Z,34.17
2023-06-03T22:00:14.212Z,34.28
2023-06-03T22:02:42.875Z,34.21
2023-06-03T22:05:11.062Z,34.28
2023-06-03T22:07:38.864Z,34.32
2023-06-03T22:10:06.897Z,34.22
2023-06-03T22:12:34.569Z,34.32
2023-06-03T22:15:02.171Z,34.29
2023-06-03T22:17:29.901Z,34.52
2023-06-03T22:19:57.347Z,34.33
2023-06-03T22:22:25.051Z,34.25
2023-06-03T22:24:52.573Z,34.25
2023-06-03T22:27:20.287Z,34.36
2023-06-03T22:29:47.713Z,34.42
2023-06-03T22:32:15.727Z,34.47
2023-06-03T22:34:43.060Z,34.42
2023-06-03T22:37:11.035Z,34.46
2023-06-03T22:39:38.435Z,34.38
2023-06-03T22:42:06.420Z,34.47
2023-06-03T22:44:33.752Z,34.54
2023-06-03T22:47:01.458Z,34.54
2023-06-03T22:49:29.080Z,34.32
2023-06-03T22:51:56.720Z,34.50
2023-06-03T22:54:24.577Z,34.39
2023-06-03T22:56:52.796Z,34.63
2023-06-03T22:59:20.126Z,34.39
2023-06-03T23:01:48.036Z,34.65
2023-06-03T23:04:15.576Z,34.59
2023-06-03T23:06:43.229Z,34.48
2023-06-03T23:09:11.321Z,34.51
2023-06-03T23:11:39.008Z,34.59
2023-06-03T23:14:06.745Z,34.35
2023-06-03T23:16:34.481Z,34.52
2023-06-03T23:19:01.901Z,34.62
2023-06-03T23:21:31.373Z,34.50
2023-06-03T23:23:59.063Z,34.65
2023-06-03T23:26:26.976Z,34.46
2023-06-03T23:28:54.419Z,34.49
2023-06-03T23:31:22.074Z,34.45
2023-06-03T23:33:49.545Z,34.52
2023-06-03T23:36:19.445Z,34.52
2023-06-03T23:38:48.719Z,34.43
2023-06-03T23:41:17.073Z,34.45
2023-06-03T23:43:44.470Z,34.26
2023-06-03T23:46:12.225Z,34.30
2023-06-03T23:48:42.536Z,34.30
2023-06-03T23:51:10.892Z,34.52
2023-06-03T23:53:38.260Z,34.30
2023-06-03T23:56:06.256Z,34.24
2023-06-03T23:58:33.845Z,34.35
